Weather observations for the past three days for
Cocoa - Patrick Air Force Base
| Date | Time (edt) | Wind (kph) | Vis. (km) | Weather | Sky Cond. | Temperature (ºC) | Relative Humidity | Wind Chill (°C) | Heat Index (°C) | Pressure | Precipitation (cm) | ||||||
|---|---|---|---|---|---|---|---|---|---|---|---|---|---|---|---|---|---|
| Air | Dwpt | 6 hour | altimeter (cm) | sea level (mb) | 1 hr | 3 hr | 6 hr | ||||||||||
| Max. | Min. | ||||||||||||||||
| 06 | 03:55 | W 20 | 16.09 | Fair | CLR | 25.9 | 23.3 | 86% | 28 | 75.77 | 1010.6 | ||||||
| 06 | 02:55 | SW 19 | 16.09 | Fair | CLR | 25.8 | 23.2 | 86% | 27 | 75.79 | 1010.9 | ||||||
| 06 | 01:55 | SW 20 | 16.09 | Fair | CLR | 26 | 23.8 | 26.5 | 25.3 | 88% | 28 | 75.87 | 1011.9 | ||||
| 06 | 00:55 | SW 15 | 16.09 | Fair | CLR | 26 | 24 | 89% | 28 | 75.9 | 1012.3 | ||||||
| 05 | 23:55 | SW 11 | 16.09 | Fair | CLR | 26 | 23.6 | 87% | 28 | 75.87 | 1011.9 | ||||||
| 05 | 22:55 | SW 13 | 16.09 | Fair | CLR | 26 | 23.1 | 84% | 28 | 75.92 | 1012.6 | ||||||
| 05 | 21:55 | S 15 | 16.09 | Light Drizzle | CLR | 26.5 | 23.1 | 82% | 29 | 75.92 | 1012.6 | ||||||
| 05 | 20:55 | S 11 | 16.09 | Fair | CLR | 26.1 | 22.7 | 82% | 28 | 75.9 | 1012.3 | ||||||
| 05 | 19:55 | S 15 | 16.09 | Thunderstorm in Vicinity | CLR | 25.4 | 22.5 | 33.3 | 23.7 | 84% | 27 | 75.87 | 1011.9 | 2.79 | |||
| 05 | 18:55 | S 13 | 12.87 | Thunderstorm Light Rain | OVC020 | 23.8 | 22.2 | 91% | 75.9 | 1012.3 | 2.79 | ||||||
| 05 | 17:55 | N 20 G 41 | 16.09 | Thunderstorm | FEW020 | 28.9 | 25.7 | 83% | 35 | 75.87 | 1011.9 | ||||||
| 05 | 16:55 | SE 26 | 16.09 | Thunderstorm in Vicinity | CLR | 32 | 26.7 | 74% | 42 | 75.84 | 1011.6 | ||||||
| 05 | 15:55 | E 17 | 16.09 | Fair | CLR | 32.1 | 26.1 | 71% | 41 | 75.82 | 1011.3 | ||||||
| 05 | 13:55 | N 7 | 16.09 | A Few Clouds | FEW170 FEW200 | 33 | 25.2 | 33 | 27.7 | 64% | 41 | 75.9 | 1012.3 | ||||
| 05 | 12:55 | W 11 | 16.09 | Fair | CLR | 32.3 | 25.3 | 67% | 40 | 75.97 | 1013.3 | ||||||
| 05 | 11:55 | W 13 | 16.09 | A Few Clouds | FEW190 | 31.9 | 25 | 67% | 39 | 76.02 | 1014.0 | ||||||
| 05 | 10:55 | SW 13 | 16.09 | Fair | CLR | 31.8 | 24.6 | 66% | 38 | 76.05 | 1014.3 | ||||||
| 05 | 09:55 | SW 17 | 16.09 | Fair | CLR | 29.9 | 24.3 | 72% | 35 | 76.02 | 1014.0 | ||||||
| 05 | 08:55 | SW 15 | 16.09 | Fair | CLR | 28.7 | 24 | 76% | 33 | 76.05 | 1014.3 | ||||||
| 05 | 07:55 | SW 13 | 16.09 | Fair | CLR | 27.6 | 24 | 28.5 | 27.1 | 81% | 31 | 76.02 | 1014.0 | ||||
| 05 | 06:55 | SW 15 | 16.09 | Fair | CLR | 27.6 | 24.6 | 84% | 32 | 75.95 | 1013.0 | ||||||
| 05 | 05:55 | SW 17 | 16.09 | Fair | CLR | 27.4 | 24.8 | 86% | 31 | 75.95 | 1013.0 | ||||||
| 05 | 04:55 | S 9 | 16.09 | Fair | CLR | 27.5 | 24.5 | 84% | 31 | 75.95 | 1013.0 | ||||||
| 05 | 03:55 | S 11 | 16.09 | Fair | CLR | 27.7 | 24.5 | 83% | 32 | 75.97 | 1013.3 | ||||||
| 05 | 02:55 | S 7 | 16.09 | A Few Clouds | FEW024 | 28 | 24.6 | 82% | 32 | 75.95 | 1013.0 | ||||||
| 05 | 01:55 | Calm | 16.09 | Fair | CLR | 28.5 | 24.9 | 29.6 | 28.2 | 81% | 34 | 76.02 | 1014.0 | ||||
| 05 | 00:55 | S 9 | 16.09 | Fair | CLR | 28.5 | 25.1 | 82% | 34 | 76.05 | 1014.3 | ||||||
| 04 | 23:55 | SW 9 | 16.09 | Fair | CLR | 28.6 | 25.4 | 83% | 34 | 76.07 | 1014.7 | ||||||
| 04 | 22:55 | S 7 | 16.09 | Fair | CLR | 28.9 | 26.3 | 86% | 36 | 76.07 | 1014.7 | ||||||
| 04 | 21:55 | SE 9 | 16.09 | Fair | CLR | 29 | 26.8 | 88% | 37 | 76.07 | 1014.7 | ||||||
| 04 | 20:55 | SE 13 | 16.09 | Fair | CLR | 29 | 26.6 | 87% | 36 | 76.05 | 1014.3 | ||||||
| 04 | 19:55 | Calm | 16.09 | Fair | CLR | 28.9 | 24.8 | 32.1 | 28.9 | 79% | 34 | 76.05 | 1014.3 | ||||
| 04 | 18:55 | SE 17 | 16.09 | Thunderstorm | CLR | 29.6 | 26.6 | 84% | 38 | 76.02 | 1014.0 | ||||||
| 04 | 17:55 | SE 26 | 16.09 | Fair | CLR | 30.4 | 26.3 | 79% | 39 | 75.95 | 1013.0 | ||||||
| 04 | 16:55 | SE 26 | 16.09 | Fair | CLR | 30.8 | 26.5 | 78% | 39 | 75.97 | 1013.3 | ||||||
| 04 | 15:55 | SE 20 | 16.09 | Fair | CLR | 31.7 | 26.7 | 75% | 41 | 76.02 | 1014.0 | ||||||
| 04 | 14:55 | E 24 | 16.09 | A Few Clouds | FEW200 | 31.6 | 26.8 | 76% | 41 | 76.05 | 1014.3 | ||||||
| 04 | 13:55 | E 19 | 16.09 | Partly Cloudy | FEW160 SCT200 | 31.5 | 26.9 | 32.9 | 28 | 77% | 41 | 76.1 | 1015.0 | ||||
| 04 | 12:55 | SE 15 | 16.09 | Fair | CLR | 31.9 | 26.9 | 75% | 42 | 76.12 | 1015.3 | ||||||
| 04 | 11:55 | SE 11 | 16.09 | Fair | CLR | 31.1 | 26.1 | 75% | 39 | 76.17 | 1016.0 | ||||||
| 04 | 10:55 | SW 11 | 16.09 | Fair | CLR | 32.4 | 25.2 | 66% | 40 | 76.15 | 1015.7 | ||||||
| 04 | 09:55 | SW 11 | 16.09 | Fair | CLR | 30.9 | 25.2 | 72% | 38 | 76.12 | 1015.3 | ||||||
| 04 | 08:55 | S 11 | 16.09 | Fair | CLR | 29.9 | 25.2 | 76% | 36 | 76.1 | 1015.0 | ||||||
| 04 | 07:55 | S 7 | 16.09 | Fair | CLR | 27.9 | 25.3 | 28 | 27.2 | 86% | 33 | 76.07 | 1014.7 | ||||
| 04 | 06:55 | S 7 | 16.09 | Fair | CLR | 27.3 | 25.1 | 88% | 31 | 76.02 | 1014.0 | ||||||
| 04 | 05:55 | S 7 | 16.09 | Fair | CLR | 27.7 | 25.5 | 88% | 32 | 76 | 1013.6 | ||||||
| 04 | 04:55 | S 11 | 16.09 | Fair | CLR | 27.7 | 25.5 | 88% | 32 | 75.97 | 1013.3 | ||||||
| 04 | 03:55 | S 11 | 16.09 | Fair | CLR | 27.9 | 26.2 | 91% | 34 | 75.95 | 1013.0 | ||||||
| 04 | 02:55 | SE 9 | 16.09 | Fair | CLR | 27.8 | 26.3 | 92% | 33 | 75.97 | 1013.3 | ||||||
| 04 | 01:55 | SE 9 | 16.09 | Fair | CLR | 27.6 | 25.4 | 28.3 | 27.6 | 88% | 32 | 76.02 | 1014.0 | ||||
| 04 | 00:55 | SE 11 | 16.09 | Fair | CLR | 27.7 | 25.1 | 86% | 32 | 76.05 | 1014.3 | ||||||
| 03 | 23:55 | S 11 | 16.09 | Fair | CLR | 27.8 | 25 | 85% | 32 | 76.02 | 1014.0 | ||||||
| 03 | 22:55 | SE 15 | 16.09 | Fair | CLR | 28.3 | 26.3 | 89% | 35 | 76.05 | 1014.3 | ||||||
| 03 | 21:55 | SE 11 | 16.09 | Fair | CLR | 28.3 | 26.1 | 88% | 34 | 76.05 | 1014.3 | ||||||
| 03 | 20:55 | SE 15 | 16.09 | A Few Clouds | FEW021 | 28.3 | 25.9 | 87% | 34 | 76.02 | 1014.0 | ||||||
| 03 | 19:55 | SE 11 | 16.09 | Fair | CLR | 28.3 | 25.7 | 29.6 | 28.3 | 86% | 34 | 76.02 | 1014.0 | ||||
| 03 | 18:55 | SE 13 | 16.09 | Fair | CLR | 28.6 | 25.6 | 84% | 34 | 76 | 1013.6 | ||||||
| 03 | 17:55 | SE 17 | 16.09 | Thunderstorm in Vicinity | CLR | 29 | 25.6 | 82% | 35 | 75.95 | 1013.0 | ||||||
| 03 | 16:55 | E 19 | 16.09 | Light Rain | CLR | 29.2 | 25.3 | 80% | 35 | 75.9 | 1012.3 | ||||||
| 03 | 15:55 | SE 19 | 16.09 | Light Drizzle | SCT012 | 29.2 | 25.6 | 81% | 36 | 75.97 | 1013.3 | ||||||
| 03 | 14:55 | E 19 | 16.09 | Light Drizzle | FEW180 | 29.6 | 25.9 | 81% | 37 | 76 | 1013.6 | ||||||
| 03 | 13:55 | E 20 | 16.09 | Thunderstorm in Vicinity | FEW150 FEW180 SCT200 | 28.8 | 25.8 | 28.8 | 27.7 | 84% | 35 | 76.05 | 1014.3 | 0.23 | 0.23 | ||
| 03 | 12:55 | E 17 | 16.09 | Fair | CLR | 28.4 | 25.6 | 85% | 34 | 76.05 | 1014.3 | ||||||
| 03 | 11:55 | E 17 | 16.09 | A Few Clouds | FEW007 | 27.9 | 25.9 | 89% | 33 | 76.12 | 1015.3 | ||||||
| 03 | 10:55 | E 9 | 16.09 | Fair | CLR | 28.2 | 26 | 88% | 34 | 76.1 | 1015.0 | ||||||
| 03 | 09:55 | Calm | 16.09 | Light Drizzle | CLR | 28.4 | 25 | 82% | 33 | 76.07 | 1014.7 | ||||||
| 03 | 08:55 | SW 6 | 16.09 | Fair | CLR | 28.3 | 26.1 | 88% | 34 | 76.05 | 1014.3 | ||||||
| 03 | 07:55 | Calm | 16.09 | Fair | CLR | 27.6 | 25.4 | 28.1 | 27.2 | 88% | 32 | 76.02 | 1014.0 | ||||
| 03 | 06:55 | S 6 | 16.09 | Fair | CLR | 27.2 | 25.4 | 90% | 31 | 75.95 | 1013.0 | ||||||
| 03 | 05:55 | SE 6 | 16.09 | Fair | CLR | 27.7 | 25.9 | 90% | 33 | 75.92 | 1012.6 | ||||||
| 03 | 04:55 | Calm | 16.09 | Light Drizzle | CLR | 27.8 | 26 | 90% | 33 | 75.9 | 1012.3 | ||||||
| Date | Time (edt) | Wind (kph) | Vis. (km) | Weather | Sky Cond. | Air | Dwpt | Max. | Min. | Relative Humidity | Wind Chill (°C) | Heat Index (°C) | altimeter (cm) | sea level (mb) | 1 hr | 3 hr | 6 hr |
| 6 hour | |||||||||||||||||
| Temperature (ºC) | Pressure | Precipitation (cm) | |||||||||||||||